Time;durP1;ratioP1;P1;durP2;ratioP2;P2;SDS_P1;SDS_P2;PMS_P1;PMS_P2;Temp;Humidity;BMP_temperature;BMP_pressure;BME280_temperature;BME280_humidity;BME280_pressure;Samples;Min_cycle;Max_cycle;Signal;HPM_P1;HPM_P2
2022/10/28 00:02:17;;;;;;;0.20;0.20;;;14.40;99.90;;;;;;5033738;28;20044;-74
2022/10/28 00:04:43;;;;;;;0.15;0.15;;;14.30;99.90;;;;;;5034598;28;20025;-74
2022/10/28 00:07:09;;;;;;;0.10;0.10;;;14.30;99.90;;;;;;5016735;28;20017;-74
2022/10/28 00:09:35;;;;;;;0.10;0.10;;;14.20;99.90;;;;;;5034617;28;20017;-74
2022/10/28 00:12:00;;;;;;;0.10;0.10;;;14.20;99.90;;;;;;5017006;28;20036;-75
2022/10/28 00:14:26;;;;;;;0.10;0.10;;;14.20;99.90;;;;;;5034585;28;20030;-75
2022/10/28 00:16:52;;;;;;;0.65;0.47;;;14.20;99.90;;;;;;5034310;28;20028;-74
2022/10/28 00:19:18;;;;;;;0.10;0.10;;;14.30;99.90;;;;;;5034541;28;20091;-75
2022/10/28 00:21:44;;;;;;;0.10;0.10;;;14.30;99.90;;;;;;5016654;28;20030;-73
2022/10/28 00:24:12;;;;;;;0.20;0.20;;;14.40;99.90;;;;;;5016433;28;20029;-74
2022/10/28 00:26:41;;;;;;;0.10;0.10;;;14.40;99.90;;;;;;5034107;28;20048;-74
2022/10/28 00:29:12;;;;;;;0.10;0.10;;;14.50;99.90;;;;;;5034281;28;20021;-75
2022/10/28 00:31:38;;;;;;;0.10;0.10;;;14.40;99.90;;;;;;5034555;28;20026;-74
2022/10/28 00:34:08;;;;;;;0.10;0.10;;;14.40;99.90;;;;;;5000249;28;20363;-75
2022/10/28 00:36:36;;;;;;;0.10;0.10;;;14.40;99.90;;;;;;5034078;28;20229;-74
2022/10/28 00:39:09;;;;;;;0.10;0.10;;;14.40;99.90;;;;;;5016273;28;20029;-74
2022/10/28 00:41:37;;;;;;;0.10;0.10;;;14.40;99.90;;;;;;5034039;28;20030;-74
2022/10/28 00:44:47;;;;;;;0.10;0.10;;;14.40;99.90;;;;;;5016180;28;20163;-74
2022/10/28 00:47:31;;;;;;;0.10;0.10;;;14.40;99.90;;;;;;5016087;28;20083;-74
2022/10/28 00:50:24;;;;;;;0.20;0.20;;;14.30;99.90;;;;;;5016295;28;20488;-75
2022/10/28 00:52:55;;;;;;;0.08;0.08;;;14.40;99.90;;;;;;5033750;28;20029;-74
2022/10/28 00:55:22;;;;;;;0.53;0.53;;;14.30;99.90;;;;;;5033721;28;20025;-75
2022/10/28 00:57:49;;;;;;;0.20;0.20;;;14.20;99.90;;;;;;5015986;28;20372;-74
2022/10/28 01:00:15;;;;;;;0.20;0.20;;;14.10;99.90;;;;;;5033588;28;20044;-74
2022/10/28 01:02:46;;;;;;;0.10;0.10;;;14.10;99.90;;;;;;5033811;28;20045;-75
2022/10/28 01:05:15;;;;;;;0.10;0.10;;;14.00;99.90;;;;;;5015640;28;20021;-74
2022/10/28 01:07:42;;;;;;;0.20;0.20;;;14.00;99.90;;;;;;5033607;28;20508;-74
2022/10/28 01:10:09;;;;;;;0.10;0.10;;;14.00;99.90;;;;;;5015575;28;20022;-74
2022/10/28 01:13:12;;;;;;;0.10;0.10;;;14.10;99.90;;;;;;5014693;28;20037;-75
2022/10/28 01:15:51;;;;;;;0.10;0.10;;;14.10;99.90;;;;;;4982144;28;20529;-75
2022/10/28 01:18:38;;;;;;;0.10;0.10;;;14.10;99.90;;;;;;5015621;28;20021;-74
2022/10/28 01:21:42;;;;;;;0.20;0.20;;;14.10;99.90;;;;;;5015527;28;20022;-74
2022/10/28 01:24:37;;;;;;;0.10;0.10;;;14.10;99.90;;;;;;5015456;28;20030;-74
2022/10/28 01:27:28;;;;;;;0.10;0.10;;;14.00;99.90;;;;;;5032984;28;20025;-74
2022/10/28 01:30:13;;;;;;;0.10;0.10;;;13.90;99.90;;;;;;5015399;28;20021;-75
2022/10/28 01:33:06;;;;;;;0.10;0.10;;;13.90;99.90;;;;;;5033147;28;20492;-74
2022/10/28 01:35:52;;;;;;;0.20;0.20;;;13.80;99.90;;;;;;5015079;28;20027;-75
2022/10/28 01:38:42;;;;;;;0.10;0.10;;;13.90;99.90;;;;;;5015290;28;20067;-75
2022/10/28 01:41:23;;;;;;;0.10;0.10;;;13.90;99.90;;;;;;5033446;28;20104;-75
2022/10/28 01:43:57;;;;;;;0.22;0.22;;;13.90;99.90;;;;;;5031597;28;20500;-75
2022/10/28 01:46:50;;;;;;;3.15;3.03;;;13.90;99.90;;;;;;5032517;28;20026;-74
2022/10/28 01:49:33;;;;;;;0.10;0.10;;;13.90;99.90;;;;;;5015148;28;20025;-74
2022/10/28 01:52:07;;;;;;;0.10;0.10;;;13.80;99.90;;;;;;5031400;28;20040;-74
2022/10/28 01:54:34;;;;;;;0.10;0.10;;;13.80;99.90;;;;;;5014933;28;20032;-74
2022/10/28 01:57:02;;;;;;;0.10;0.10;;;13.80;99.90;;;;;;5032561;28;20108;-74
2022/10/28 01:59:29;;;;;;;0.10;0.10;;;13.70;99.90;;;;;;5032916;28;20029;-75
2022/10/28 02:01:55;;;;;;;0.20;0.20;;;13.80;99.90;;;;;;5032547;28;20025;-75
2022/10/28 02:04:22;;;;;;;0.10;0.10;;;13.90;99.90;;;;;;5014615;28;20076;-74
2022/10/28 02:06:52;;;;;;;0.10;0.10;;;13.90;99.90;;;;;;5014536;28;20072;-74
2022/10/28 02:09:24;;;;;;;0.10;0.10;;;13.90;99.90;;;;;;5031313;28;20041;-74
2022/10/28 02:11:56;;;;;;;0.10;0.10;;;13.90;99.90;;;;;;5032185;28;20021;-75
2022/10/28 02:14:25;;;;;;;0.10;0.10;;;13.80;99.90;;;;;;5014670;28;20397;-74
2022/10/28 02:17:01;;;;;;;0.10;0.10;;;13.80;99.90;;;;;;5014762;28;20045;-75
2022/10/28 02:19:47;;;;;;;0.10;0.10;;;13.90;99.90;;;;;;5032390;28;20029;-75
2022/10/28 02:22:29;;;;;;;0.10;0.10;;;13.90;99.90;;;;;;5030903;28;20049;-74
2022/10/28 02:25:15;;;;;;;0.10;0.10;;;13.90;99.90;;;;;;5014023;28;20025;-75
2022/10/28 02:27:53;;;;;;;1.67;0.57;;;13.90;99.90;;;;;;5032226;28;20026;-74
2022/10/28 02:30:30;;;;;;;0.10;0.10;;;13.80;99.90;;;;;;5032298;28;20052;-75
2022/10/28 02:33:00;;;;;;;0.20;0.20;;;13.80;99.90;;;;;;5032157;28;20099;-74
2022/10/28 02:35:51;;;;;;;0.15;0.15;;;13.80;99.90;;;;;;5031881;28;20352;-75
2022/10/28 02:38:43;;;;;;;0.13;0.13;;;13.70;99.90;;;;;;5032110;28;20025;-74
2022/10/28 02:41:22;;;;;;;4.10;3.75;;;13.60;99.90;;;;;;5014566;28;20032;-74
2022/10/28 02:43:53;;;;;;;0.10;0.10;;;13.50;99.90;;;;;;5031905;28;20314;-74
2022/10/28 02:46:22;;;;;;;0.20;0.20;;;13.40;99.90;;;;;;4997756;28;20076;-74
2022/10/28 02:48:55;;;;;;;0.00;0.00;;;13.40;99.90;;;;;;5030796;28;20017;-75
2022/10/28 02:51:32;;;;;;;0.00;0.00;;;13.40;99.90;;;;;;5031837;28;20025;-74
2022/10/28 02:54:17;;;;;;;0.10;0.10;;;13.30;99.90;;;;;;5014517;28;20056;-75
2022/10/28 02:56:58;;;;;;;0.38;0.38;;;13.20;99.90;;;;;;5014123;28;20025;-74
2022/10/28 02:59:27;;;;;;;0.10;0.10;;;13.10;99.90;;;;;;5032164;28;20104;-75
2022/10/28 03:01:53;;;;;;;0.10;0.10;;;13.00;99.90;;;;;;5031846;28;20520;-75
2022/10/28 03:04:18;;;;;;;0.10;0.10;;;13.10;99.90;;;;;;5031714;28;20049;-74
2022/10/28 03:06:44;;;;;;;0.10;0.10;;;13.30;99.90;;;;;;5031539;28;20022;-74
2022/10/28 03:09:10;;;;;;;0.10;0.10;;;13.30;99.90;;;;;;5031673;28;20029;-75
2022/10/28 03:11:36;;;;;;;0.10;0.10;;;13.50;99.90;;;;;;5013896;28;20021;-75
2022/10/28 03:14:01;;;;;;;0.20;0.20;;;13.50;99.90;;;;;;5031894;28;20091;-74
2022/10/28 03:16:27;;;;;;;0.10;0.10;;;13.40;99.90;;;;;;5013887;28;20036;-75
2022/10/28 03:18:53;;;;;;;0.20;0.20;;;13.50;99.90;;;;;;5013909;28;20048;-74
2022/10/28 03:21:19;;;;;;;0.13;0.13;;;13.60;99.90;;;;;;5013728;28;20428;-74
2022/10/28 03:23:44;;;;;;;0.20;0.20;;;13.60;99.90;;;;;;5013782;28;20026;-75
2022/10/28 03:26:10;;;;;;;0.20;0.20;;;13.30;99.90;;;;;;5013732;28;20040;-75
2022/10/28 03:28:36;;;;;;;0.10;0.10;;;13.40;99.90;;;;;;5031571;28;20032;-74
2022/10/28 03:31:02;;;;;;;0.13;0.13;;;13.50;99.90;;;;;;5013816;28;20156;-75
2022/10/28 03:33:27;;;;;;;0.10;0.10;;;13.50;99.90;;;;;;5031368;28;20151;-74
2022/10/28 03:35:53;;;;;;;0.13;0.13;;;13.40;99.90;;;;;;5032715;28;20036;-74
2022/10/28 03:38:19;;;;;;;0.15;0.15;;;13.40;99.90;;;;;;5035141;28;20030;-75
2022/10/28 03:40:49;;;;;;;0.10;0.10;;;13.40;99.90;;;;;;5035190;28;20025;-74
2022/10/28 03:43:15;;;;;;;0.10;0.10;;;13.20;99.90;;;;;;5035035;28;20081;-74
2022/10/28 03:45:41;;;;;;;0.13;0.13;;;13.10;99.90;;;;;;5033662;28;20108;-75
2022/10/28 03:48:07;;;;;;;0.10;0.10;;;13.00;99.90;;;;;;5017293;28;20113;-75
2022/10/28 03:50:32;;;;;;;0.20;0.20;;;13.00;99.90;;;;;;5034941;28;20041;-74
2022/10/28 03:52:58;;;;;;;0.20;0.20;;;13.00;99.90;;;;;;5034724;28;20043;-75
2022/10/28 03:55:24;;;;;;;0.20;0.20;;;12.90;99.90;;;;;;5033586;28;20060;-74
2022/10/28 03:57:51;;;;;;;3.00;0.55;;;12.80;99.90;;;;;;5017187;28;20053;-74
2022/10/28 04:00:17;;;;;;;0.10;0.10;;;12.80;99.90;;;;;;5034924;28;20026;-74
2022/10/28 04:02:48;;;;;;;0.20;0.20;;;12.90;99.90;;;;;;5034768;28;20112;-74
2022/10/28 04:05:14;;;;;;;1.25;1.00;;;13.00;99.90;;;;;;5033199;28;20030;-75
2022/10/28 04:07:39;;;;;;;0.10;0.10;;;13.10;99.90;;;;;;5034589;28;20504;-75
2022/10/28 04:10:05;;;;;;;0.15;0.15;;;13.20;99.90;;;;;;5034727;28;20017;-74
2022/10/28 04:12:31;;;;;;;0.32;0.32;;;13.30;99.90;;;;;;5016891;28;20030;-75
2022/10/28 04:14:57;;;;;;;0.10;0.10;;;13.30;99.90;;;;;;5016638;28;20033;-74
2022/10/28 04:17:23;;;;;;;1.13;0.52;;;13.30;99.90;;;;;;5034743;28;20040;-74
2022/10/28 04:19:48;;;;;;;4.00;3.30;;;13.30;99.90;;;;;;5034481;28;20022;-74
2022/10/28 04:22:14;;;;;;;0.52;0.50;;;13.40;99.90;;;;;;5034295;28;20084;-74
2022/10/28 04:24:40;;;;;;;3.58;1.30;;;13.50;99.90;;;;;;5034329;28;20018;-74
2022/10/28 04:27:06;;;;;;;0.10;0.10;;;13.50;99.90;;;;;;5016914;28;20092;-75
2022/10/28 04:29:32;;;;;;;0.20;0.20;;;13.50;99.90;;;;;;5034341;28;20026;-75
2022/10/28 04:31:58;;;;;;;0.20;0.20;;;13.60;99.90;;;;;;5034344;28;20026;-75
2022/10/28 04:34:24;;;;;;;0.63;0.35;;;13.50;99.90;;;;;;5034197;28;20067;-74
2022/10/28 04:36:50;;;;;;;0.10;0.10;;;13.50;99.90;;;;;;5016281;28;20029;-74
2022/10/28 04:39:16;;;;;;;0.10;0.10;;;13.50;99.90;;;;;;5016281;28;20366;-74
2022/10/28 04:41:42;;;;;;;0.10;0.10;;;13.50;99.90;;;;;;5033871;28;20029;-74
2022/10/28 04:44:08;;;;;;;0.10;0.10;;;13.50;99.90;;;;;;5032773;28;20030;-74
2022/10/28 04:46:33;;;;;;;0.40;0.40;;;13.50;99.90;;;;;;5033508;28;20100;-74
2022/10/28 04:48:59;;;;;;;0.10;0.10;;;13.60;99.90;;;;;;5033975;28;20049;-74
2022/10/28 04:51:25;;;;;;;0.10;0.10;;;13.60;99.90;;;;;;5032538;28;20112;-74
2022/10/28 04:53:51;;;;;;;0.10;0.10;;;13.70;99.90;;;;;;5016125;28;20481;-74
2022/10/28 04:56:16;;;;;;;0.20;0.20;;;13.70;99.90;;;;;;5033524;28;20029;-74
2022/10/28 04:58:42;;;;;;;0.10;0.10;;;13.70;99.90;;;;;;5033769;28;20033;-75
2022/10/28 05:01:09;;;;;;;0.20;0.20;;;13.70;99.90;;;;;;5015834;28;20029;-75
2022/10/28 05:03:35;;;;;;;0.13;0.13;;;13.70;99.90;;;;;;5033564;28;20021;-75
2022/10/28 05:06:01;;;;;;;0.10;0.10;;;13.70;99.90;;;;;;5033480;28;20033;-75
2022/10/28 05:08:27;;;;;;;0.10;0.10;;;13.70;99.90;;;;;;5033645;28;20021;-75
2022/10/28 05:10:53;;;;;;;0.80;0.55;;;13.70;99.90;;;;;;5033383;28;20018;-74
2022/10/28 05:13:19;;;;;;;0.30;0.30;;;13.60;99.90;;;;;;5033420;28;20022;-74
2022/10/28 05:15:47;;;;;;;0.10;0.10;;;13.50;99.90;;;;;;5033014;28;20024;-74
2022/10/28 05:18:13;;;;;;;0.10;0.10;;;13.50;99.90;;;;;;5033355;28;20022;-75
2022/10/28 05:20:39;;;;;;;1.05;0.47;;;13.40;99.90;;;;;;5032036;28;20029;-77
2022/10/28 05:23:04;;;;;;;0.10;0.10;;;13.40;99.90;;;;;;5033199;28;20037;-74
2022/10/28 05:25:30;;;;;;;0.20;0.20;;;13.40;99.90;;;;;;5015229;28;20056;-75
2022/10/28 05:27:59;;;;;;;0.17;0.17;;;13.40;99.90;;;;;;5033256;28;20033;-75
2022/10/28 05:30:26;;;;;;;0.20;0.20;;;13.40;99.90;;;;;;5033118;28;20026;-75
2022/10/28 05:32:58;;;;;;;0.13;0.13;;;13.40;99.90;;;;;;5032904;28;20036;-75
2022/10/28 05:35:24;;;;;;;0.30;0.30;;;13.40;99.90;;;;;;5014981;28;20399;-75
2022/10/28 05:37:49;;;;;;;0.10;0.10;;;13.40;99.90;;;;;;5015123;28;20117;-75
2022/10/28 05:40:15;;;;;;;0.25;0.25;;;13.40;99.90;;;;;;5015334;28;20511;-77
2022/10/28 05:42:41;;;;;;;0.30;0.30;;;13.40;99.90;;;;;;5032351;28;20040;-75
2022/10/28 05:45:08;;;;;;;0.10;0.10;;;13.40;99.90;;;;;;5030542;28;20060;-75
2022/10/28 05:47:34;;;;;;;0.10;0.10;;;13.50;99.90;;;;;;5015013;28;20096;-75
2022/10/28 05:49:59;;;;;;;0.10;0.10;;;13.40;99.90;;;;;;5032573;28;20470;-75
2022/10/28 05:52:25;;;;;;;0.75;0.68;;;13.50;99.90;;;;;;5032612;28;20129;-75
2022/10/28 05:54:51;;;;;;;0.70;0.70;;;13.50;99.90;;;;;;5014691;28;20089;-75
2022/10/28 05:57:17;;;;;;;0.10;0.10;;;13.60;99.90;;;;;;5032513;28;20028;-75
2022/10/28 05:59:42;;;;;;;0.35;0.32;;;13.60;99.90;;;;;;5030526;28;20026;-74
2022/10/28 06:02:14;;;;;;;0.30;0.30;;;13.60;99.90;;;;;;5014896;28;20057;-75
2022/10/28 06:04:41;;;;;;;0.10;0.10;;;13.60;99.90;;;;;;5031547;28;20018;-73
2022/10/28 06:07:06;;;;;;;0.10;0.10;;;13.70;99.90;;;;;;5014715;28;20029;-72
2022/10/28 06:09:32;;;;;;;0.10;0.10;;;13.70;99.90;;;;;;5029519;28;20362;-73
2022/10/28 06:11:59;;;;;;;0.10;0.10;;;13.70;99.90;;;;;;5050859;28;20029;-75
2022/10/28 06:14:25;;;;;;;0.10;0.10;;;13.70;99.90;;;;;;5013959;28;20104;-73
2022/10/28 06:16:51;;;;;;;0.30;0.30;;;13.70;99.90;;;;;;5032461;28;20426;-73
2022/10/28 06:19:16;;;;;;;0.17;0.17;;;13.70;99.90;;;;;;5032160;28;20504;-72
2022/10/28 06:21:42;;;;;;;0.10;0.10;;;13.80;99.90;;;;;;5015939;28;20060;-73
2022/10/28 06:24:09;;;;;;;0.10;0.10;;;13.70;99.90;;;;;;5014159;28;20026;-73
2022/10/28 06:26:35;;;;;;;0.10;0.10;;;13.70;99.90;;;;;;5030802;28;20053;-73
2022/10/28 06:29:00;;;;;;;0.10;0.10;;;13.70;99.90;;;;;;5032151;28;20029;-73
2022/10/28 06:31:26;;;;;;;0.10;0.10;;;13.70;99.90;;;;;;5031955;28;20056;-73
2022/10/28 06:33:52;;;;;;;3.03;2.88;;;13.70;99.90;;;;;;5037800;28;20120;-73
2022/10/28 06:36:18;;;;;;;0.10;0.10;;;13.70;99.90;;;;;;5031749;28;20030;-73
2022/10/28 06:38:43;;;;;;;0.20;0.20;;;13.80;99.90;;;;;;5041557;28;20029;-73
2022/10/28 06:41:09;;;;;;;0.10;0.10;;;13.90;99.90;;;;;;5051995;28;20033;-73
2022/10/28 06:43:35;;;;;;;0.10;0.10;;;13.90;99.90;;;;;;5041032;28;20108;-72
2022/10/28 06:46:02;;;;;;;0.10;0.10;;;14.00;99.90;;;;;;5013839;28;20064;-73
2022/10/28 06:48:28;;;;;;;0.10;0.10;;;14.10;99.90;;;;;;5028644;28;20025;-73
2022/10/28 06:50:55;;;;;;;1.35;0.52;;;14.20;99.90;;;;;;5030971;28;20074;-73
2022/10/28 06:53:21;;;;;;;1.48;1.00;;;14.20;99.90;;;;;;5011728;28;20029;-71
2022/10/28 06:55:54;;;;;;;1.00;0.25;;;14.40;99.90;;;;;;5026999;28;20020;-75
2022/10/28 06:58:20;;;;;;;0.10;0.10;;;14.50;99.90;;;;;;5029053;28;20373;-71
2022/10/28 07:00:46;;;;;;;4.57;3.58;;;14.50;99.90;;;;;;5030178;28;20028;-73
2022/10/28 07:03:13;;;;;;;0.20;0.20;;;14.50;99.90;;;;;;5031449;28;20040;-76
2022/10/28 07:05:38;;;;;;;0.10;0.10;;;14.60;99.90;;;;;;5011182;28;20025;-73
2022/10/28 07:08:04;;;;;;;0.10;0.10;;;14.70;99.90;;;;;;5022144;28;20370;-71
2022/10/28 07:10:30;;;;;;;0.10;0.10;;;14.70;99.90;;;;;;5011679;28;20029;-72
2022/10/28 07:12:56;;;;;;;0.32;0.32;;;14.70;99.90;;;;;;5025319;28;20030;-73
2022/10/28 07:15:22;;;;;;;0.22;0.22;;;14.80;99.90;;;;;;5015036;28;20037;-71
2022/10/28 07:17:55;;;;;;;0.10;0.10;;;14.80;99.90;;;;;;5025450;28;20598;-72
2022/10/28 07:20:23;;;;;;;0.50;0.50;;;14.80;99.90;;;;;;5024734;28;20064;-72
2022/10/28 07:22:55;;;;;;;1.65;0.45;;;14.80;99.90;;;;;;5030363;28;20884;-72
2022/10/28 07:25:21;;;;;;;0.10;0.10;;;14.90;99.90;;;;;;5024361;28;20454;-72
2022/10/28 07:27:47;;;;;;;0.40;0.40;;;15.00;99.90;;;;;;5024566;28;20033;-72
2022/10/28 07:30:12;;;;;;;0.82;0.82;;;15.00;99.90;;;;;;5013897;28;20033;-71
2022/10/28 07:32:38;;;;;;;13.85;0.70;;;15.10;99.90;;;;;;5024795;28;20076;-71
2022/10/28 07:35:04;;;;;;;0.20;0.20;;;15.20;99.90;;;;;;5024551;28;20037;-72
2022/10/28 07:37:30;;;;;;;1.13;0.40;;;15.20;99.90;;;;;;5015141;28;20123;-72
2022/10/28 07:39:56;;;;;;;0.10;0.10;;;15.30;99.90;;;;;;5030935;28;20188;-71
2022/10/28 07:42:22;;;;;;;0.20;0.20;;;15.40;99.90;;;;;;5023651;28;20043;-74
2022/10/28 07:44:47;;;;;;;0.10;0.10;;;15.40;99.90;;;;;;5012927;28;20041;-72
2022/10/28 07:47:14;;;;;;;0.10;0.10;;;15.50;99.90;;;;;;5015581;28;20430;-72
2022/10/28 07:49:40;;;;;;;0.13;0.13;;;15.70;99.90;;;;;;5012713;28;20500;-73
2022/10/28 07:52:06;;;;;;;0.10;0.10;;;15.80;99.90;;;;;;5025415;28;20444;-74
2022/10/28 07:54:31;;;;;;;0.10;0.10;;;15.90;99.90;;;;;;5023594;28;20503;-73
2022/10/28 07:56:57;;;;;;;0.13;0.13;;;15.90;99.90;;;;;;5023519;28;20057;-74
2022/10/28 07:59:24;;;;;;;0.10;0.10;;;16.00;99.90;;;;;;5024163;28;20599;-74
2022/10/28 08:01:49;;;;;;;0.10;0.10;;;16.10;99.90;;;;;;5023852;28;20120;-75
2022/10/28 08:04:15;;;;;;;0.05;0.05;;;16.20;99.90;;;;;;5023736;28;20636;-74
2022/10/28 08:06:41;;;;;;;0.10;0.10;;;16.30;99.90;;;;;;5022737;28;20038;-74
2022/10/28 08:09:07;;;;;;;0.75;0.55;;;16.40;99.90;;;;;;5023735;28;20113;-74
2022/10/28 08:11:33;;;;;;;0.35;0.35;;;16.40;99.90;;;;;;5023047;28;20148;-75
2022/10/28 08:14:00;;;;;;;0.20;0.20;;;16.50;99.90;;;;;;5006407;28;20029;-74
2022/10/28 08:16:27;;;;;;;0.13;0.13;;;16.60;99.90;;;;;;5012395;28;20040;-74
2022/10/28 08:18:55;;;;;;;0.10;0.10;;;16.80;99.90;;;;;;5014878;28;20030;-74
2022/10/28 08:21:23;;;;;;;0.10;0.10;;;16.90;99.90;;;;;;5014465;28;20148;-73
2022/10/28 08:23:50;;;;;;;0.15;0.15;;;17.00;99.90;;;;;;5023426;28;20567;-73
2022/10/28 08:26:16;;;;;;;0.10;0.10;;;17.00;99.90;;;;;;5023153;28;20033;-73
2022/10/28 08:28:42;;;;;;;0.10;0.10;;;17.10;99.90;;;;;;5022287;28;20026;-75
2022/10/28 08:31:08;;;;;;;0.10;0.10;;;17.30;99.90;;;;;;5021972;28;20442;-76
2022/10/28 08:33:36;;;;;;;0.08;0.08;;;17.40;99.90;;;;;;5013417;28;20052;-77
2022/10/28 08:36:02;;;;;;;0.10;0.10;;;17.50;99.90;;;;;;5010267;28;20053;-77
2022/10/28 08:38:28;;;;;;;0.10;0.10;;;17.60;99.90;;;;;;5020942;28;20089;-77
2022/10/28 08:41:04;;;;;;;0.10;0.10;;;17.70;99.90;;;;;;5020332;28;20042;-76
2022/10/28 08:43:42;;;;;;;0.10;0.10;;;17.80;99.90;;;;;;5010823;28;20600;-76
2022/10/28 08:46:13;;;;;;;0.10;0.10;;;17.90;99.90;;;;;;5011524;28;20033;-76
2022/10/28 08:48:40;;;;;;;0.10;0.10;;;18.00;99.90;;;;;;5012769;28;20413;-76
2022/10/28 08:51:17;;;;;;;0.10;0.10;;;18.10;99.90;;;;;;5011903;28;20034;-76
2022/10/28 08:53:54;;;;;;;0.10;0.10;;;18.30;99.90;;;;;;5004076;28;20056;-76
2022/10/28 08:56:45;;;;;;;0.10;0.10;;;18.40;99.90;;;;;;5007895;28;20140;-77
2022/10/28 08:59:29;;;;;;;0.00;0.00;;;18.60;99.90;;;;;;5009114;28;20039;-77
2022/10/28 09:02:17;;;;;;;0.05;0.05;;;18.70;99.90;;;;;;5020277;28;20482;-77
2022/10/28 09:04:45;;;;;;;0.10;0.10;;;18.90;99.90;;;;;;5007776;28;20037;-77
2022/10/28 09:07:21;;;;;;;0.08;0.08;;;19.10;99.90;;;;;;4995251;28;20029;-77
2022/10/28 09:09:48;;;;;;;0.10;0.10;;;19.30;99.90;;;;;;5020282;28;20076;-77
2022/10/28 09:12:33;;;;;;;0.30;0.30;;;19.50;99.90;;;;;;5020555;28;20020;-74
2022/10/28 09:14:59;;;;;;;0.00;0.00;;;19.90;99.60;;;;;;5012857;28;20481;-74
2022/10/28 09:17:49;;;;;;;0.00;0.00;;;20.10;98.80;;;;;;5012319;28;20022;-74
2022/10/28 09:20:33;;;;;;;0.10;0.10;;;20.30;99.10;;;;;;4995418;28;20025;-74
2022/10/28 09:23:18;;;;;;;0.10;0.10;;;20.40;98.70;;;;;;5021338;28;20034;-74
2022/10/28 09:25:58;;;;;;;0.00;0.00;;;20.50;98.80;;;;;;5022298;28;20042;-74
2022/10/28 09:28:42;;;;;;;0.00;0.00;;;20.60;99.00;;;;;;5012136;28;20040;-73
2022/10/28 09:31:18;;;;;;;0.10;0.10;;;20.60;98.90;;;;;;5013556;28;20363;-74
2022/10/28 09:33:49;;;;;;;0.00;0.00;;;20.80;97.80;;;;;;5027964;28;20037;-75
2022/10/28 09:36:22;;;;;;;0.10;0.10;;;20.80;97.00;;;;;;5029545;28;20021;-75
2022/10/28 09:38:52;;;;;;;0.00;0.00;;;20.80;97.70;;;;;;5015376;28;20033;-78
2022/10/28 09:41:32;;;;;;;0.00;0.00;;;21.20;96.40;;;;;;5015232;28;20068;-74
2022/10/28 09:44:12;;;;;;;2.13;0.73;;;21.50;96.60;;;;;;5032504;28;20032;-75
2022/10/28 09:46:39;;;;;;;0.00;0.00;;;22.20;93.60;;;;;;5032476;28;20026;-74
2022/10/28 09:49:14;;;;;;;0.00;0.00;;;22.40;93.70;;;;;;5032724;28;20018;-74
2022/10/28 09:51:43;;;;;;;0.00;0.00;;;22.30;91.70;;;;;;5033295;28;20029;-74
2022/10/28 09:54:11;;;;;;;0.00;0.00;;;22.20;92.10;;;;;;5014602;28;20037;-75
2022/10/28 09:56:38;;;;;;;0.00;0.00;;;22.30;92.90;;;;;;5014435;28;20408;-74
2022/10/28 09:59:04;;;;;;;0.00;0.00;;;22.50;91.20;;;;;;5032642;28;20021;-74
2022/10/28 10:01:36;;;;;;;0.00;0.00;;;22.70;87.00;;;;;;5014703;28;20032;-74
2022/10/28 10:04:10;;;;;;;0.00;0.00;;;22.70;86.00;;;;;;5032142;28;20033;-74
2022/10/28 10:06:38;;;;;;;0.00;0.00;;;23.20;85.60;;;;;;5032086;28;20045;-74
2022/10/28 10:09:04;;;;;;;0.00;0.00;;;23.60;81.20;;;;;;5032160;28;20018;-74
2022/10/28 10:11:45;;;;;;;0.08;0.08;;;23.80;77.90;;;;;;5014394;28;20079;-74
2022/10/28 10:14:17;;;;;;;0.00;0.00;;;23.80;78.70;;;;;;5032675;28;20044;-74
2022/10/28 10:16:58;;;;;;;0.00;0.00;;;23.80;77.50;;;;;;5020316;28;20045;-75
2022/10/28 10:19:23;;;;;;;0.08;0.08;;;24.00;77.20;;;;;;5036189;28;20032;-76
2022/10/28 10:21:54;;;;;;;0.00;0.00;;;24.50;76.90;;;;;;5018740;28;20035;-76
2022/10/28 10:24:29;;;;;;;0.00;0.00;;;25.50;74.30;;;;;;5031660;28;20029;-76
2022/10/28 10:26:56;;;;;;;0.00;0.00;;;26.10;77.30;;;;;;5013858;28;20025;-76
2022/10/28 10:29:23;;;;;;;0.00;0.00;;;26.60;73.70;;;;;;5032129;28;20026;-76
2022/10/28 10:32:12;;;;;;;11.15;1.05;;;26.70;70.00;;;;;;5015032;28;20022;-76
2022/10/28 10:34:43;;;;;;;0.00;0.00;;;26.80;68.80;;;;;;5051811;28;20048;-76
2022/10/28 10:37:18;;;;;;;0.00;0.00;;;27.00;68.10;;;;;;5039726;28;20101;-77
2022/10/28 10:39:44;;;;;;;0.00;0.00;;;27.30;65.90;;;;;;5010410;28;20120;-77
2022/10/28 10:42:21;;;;;;;0.00;0.00;;;27.60;64.50;;;;;;5011378;28;20108;-77
2022/10/28 10:44:59;;;;;;;0.00;0.00;;;28.00;64.20;;;;;;5031497;28;20095;-77
2022/10/28 10:47:25;;;;;;;0.00;0.00;;;28.00;62.50;;;;;;5014305;28;20025;-76
2022/10/28 10:49:51;;;;;;;0.00;0.00;;;28.00;60.80;;;;;;5030925;28;20129;-77
2022/10/28 10:52:22;;;;;;;0.00;0.00;;;28.10;60.50;;;;;;5014016;28;20103;-77
2022/10/28 10:55:05;;;;;;;0.00;0.00;;;27.90;59.70;;;;;;5032068;28;20209;-77
2022/10/28 10:57:32;;;;;;;0.00;0.00;;;28.20;59.90;;;;;;5014322;28;20057;-77
2022/10/28 10:59:58;;;;;;;0.65;0.60;;;28.70;58.30;;;;;;5014590;28;20017;-77
2022/10/28 11:02:26;;;;;;;2.25;2.05;;;29.10;57.80;;;;;;5031929;28;20056;-77
2022/10/28 11:04:56;;;;;;;0.00;0.00;;;29.20;57.10;;;;;;4998058;28;20025;-77
2022/10/28 11:07:22;;;;;;;6.25;0.90;;;28.70;57.70;;;;;;5032208;28;20049;-77
2022/10/28 11:09:49;;;;;;;0.00;0.00;;;27.80;59.40;;;;;;5032306;28;20021;-77
2022/10/28 11:12:30;;;;;;;0.20;0.20;;;27.30;60.50;;;;;;5031974;28;20562;-77
2022/10/28 11:15:10;;;;;;;0.00;0.00;;;26.80;61.50;;;;;;5031451;28;20021;-76
2022/10/28 11:17:36;;;;;;;0.00;0.00;;;26.50;63.30;;;;;;5014217;28;20272;-77
2022/10/28 11:20:49;;;;;;;0.00;0.00;;;26.10;64.00;;;;;;5014291;28;20025;-76
2022/10/28 11:23:34;;;;;;;0.08;0.08;;;26.10;64.80;;;;;;4916179;29;20083;-77
2022/10/28 11:26:07;;;;;;;0.82;0.73;;;26.50;63.30;;;;;;5013750;28;20017;-77
2022/10/28 11:28:42;;;;;;;0.00;0.00;;;27.10;62.10;;;;;;5031806;28;20018;-77
2022/10/28 11:31:17;;;;;;;0.00;0.00;;;27.20;61.70;;;;;;5013980;28;20029;-77
2022/10/28 11:34:16;;;;;;;0.00;0.00;;;27.00;63.00;;;;;;5013806;28;20022;-77
2022/10/28 11:36:51;;;;;;;0.00;0.00;;;26.90;61.50;;;;;;5013748;28;20052;-77
2022/10/28 11:39:23;;;;;;;0.00;0.00;;;27.10;60.80;;;;;;5014094;28;20481;-77
2022/10/28 11:42:06;;;;;;;0.00;0.00;;;27.20;61.70;;;;;;5035274;28;20079;-77
2022/10/28 11:44:38;;;;;;;0.00;0.00;;;27.20;61.10;;;;;;5014668;28;20052;-77
2022/10/28 11:47:16;;;;;;;0.00;0.00;;;27.50;59.90;;;;;;5017840;28;20022;-77
2022/10/28 11:50:22;;;;;;;0.00;0.00;;;28.20;60.00;;;;;;5036033;28;20021;-77
2022/10/28 11:53:21;;;;;;;0.00;0.00;;;28.60;60.10;;;;;;4952377;29;20118;-77
2022/10/28 11:56:14;;;;;;;0.00;0.00;;;29.40;59.00;;;;;;5052425;28;20096;-77
2022/10/28 11:58:51;;;;;;;0.00;0.00;;;30.00;57.90;;;;;;5000890;28;20033;-77
2022/10/28 12:02:11;;;;;;;0.00;0.00;;;30.10;56.70;;;;;;5035493;28;20045;-77
2022/10/28 12:05:04;;;;;;;0.00;0.00;;;29.70;57.20;;;;;;4919919;29;20023;-77
2022/10/28 12:07:51;;;;;;;0.93;0.35;;;29.10;58.20;;;;;;5035915;28;20095;-77
2022/10/28 12:10:28;;;;;;;0.00;0.00;;;29.20;57.70;;;;;;5035241;28;20049;-77
2022/10/28 12:13:25;;;;;;;0.60;0.20;;;29.20;58.20;;;;;;5018008;28;20083;-77
2022/10/28 12:15:56;;;;;;;0.00;0.00;;;29.60;56.80;;;;;;5035548;28;20025;-77
2022/10/28 12:18:55;;;;;;;0.00;0.00;;;30.10;56.10;;;;;;5035677;28;20028;-76
2022/10/28 12:21:44;;;;;;;0.00;0.00;;;29.80;56.10;;;;;;5016952;28;20033;-77
2022/10/28 12:24:22;;;;;;;0.00;0.00;;;29.20;57.20;;;;;;5035279;28;20018;-76
2022/10/28 12:26:53;;;;;;;0.00;0.00;;;28.90;57.30;;;;;;5017668;28;20029;-77
2022/10/28 12:29:32;;;;;;;0.00;0.00;;;28.60;58.10;;;;;;5017310;28;20390;-77
2022/10/28 12:32:07;;;;;;;0.00;0.00;;;28.50;57.80;;;;;;5034350;28;20110;-75
2022/10/28 12:34:44;;;;;;;0.00;0.00;;;28.30;58.00;;;;;;5027041;28;20017;-76
2022/10/28 12:37:24;;;;;;;0.00;0.00;;;28.40;58.10;;;;;;5041361;28;20045;-76
2022/10/28 12:40:14;;;;;;;0.52;0.52;;;29.00;56.90;;;;;;5016415;28;20052;-76
2022/10/28 12:42:46;;;;;;;4.90;0.20;;;29.30;56.40;;;;;;5016210;28;20370;-76
2022/10/28 12:45:16;;;;;;;0.00;0.00;;;29.40;56.30;;;;;;5033836;28;20030;-75
2022/10/28 12:47:58;;;;;;;1.13;0.43;;;29.30;57.40;;;;;;5016434;28;20109;-77
2022/10/28 12:50:41;;;;;;;0.00;0.00;;;29.30;57.40;;;;;;5034613;28;20021;-76
2022/10/28 12:53:42;;;;;;;0.00;0.00;;;29.40;58.10;;;;;;5034400;28;20080;-76
2022/10/28 12:56:14;;;;;;;0.00;0.00;;;29.40;58.20;;;;;;4967306;28;20040;-76
2022/10/28 12:58:56;;;;;;;0.00;0.00;;;29.80;58.10;;;;;;5033522;28;20026;-77
2022/10/28 13:01:25;;;;;;;0.00;0.00;;;29.90;58.00;;;;;;5033523;28;20669;-77
2022/10/28 13:03:51;;;;;;;0.17;0.17;;;29.90;58.90;;;;;;5034309;28;20030;-76
2022/10/28 13:06:45;;;;;;;0.00;0.00;;;29.50;59.70;;;;;;5033720;28;20041;-75
2022/10/28 13:09:38;;;;;;;0.10;0.10;;;28.80;60.40;;;;;;5016119;28;20611;-76
2022/10/28 13:12:40;;;;;;;0.00;0.00;;;27.90;62.80;;;;;;5033644;28;20044;-76
2022/10/28 13:15:29;;;;;;;0.00;0.00;;;27.50;65.20;;;;;;5033511;28;20029;-76